Thursday, June 21, 2018, 12:17 PM EDT
Back to Local

KBOS, Boston Logan International

Location: Boston, MA, United States Lat: 42.367
Local Time: 12:17 PM EDT (16:17 GMT) Lon: -71.017
Time Zone: US/Eastern Elev: 19 ft

Show me the last for .
Show Decoded

2018-06-21 11:54 METAR KBOS 211554Z 11011KT 10SM FEW040 FEW200 26/13 A2977 RMK AO2 SLP082
                 T02610133 =
2018-06-21 10:54 METAR KBOS 211454Z 13007KT 10SM FEW045 FEW200 26/14 A2977 RMK AO2 SLP082
                 T02560139 53003 =
2018-06-21 09:54 METAR KBOS 211354Z 03007KT 10SM FEW050 FEW180 27/13 A2977 RMK AO2 SLP080
                 T02670128 =
2018-06-21 08:54 METAR KBOS 211254Z 29006KT 10SM FEW050 SCT180 23/12 A2977 RMK AO2 SLP081
                 T02330122 =
2018-06-21 07:54 METAR KBOS 211154Z 29004KT 10SM BKN170 BKN250 23/13 A2977 RMK AO2 SLP079
                 T02330128 10233 20189 52010 =
2018-06-21 06:54 METAR KBOS 211054Z 28006KT 10SM BKN160 BKN250 22/14 A2976 RMK AO2 SLP076
                 T02220139 =
2018-06-21 05:54 METAR KBOS 210954Z 29005KT 10SM FEW110 BKN140 BKN250 21/14 A2975 RMK AO2 SLP072
                 T02110144 =
2018-06-21 04:54 METAR KBOS 210854Z 22003KT 10SM FEW110 BKN150 BKN250 20/14 A2974 RMK AO2 SLP069
                 T02000144 55005 =
2018-06-21 03:54 METAR KBOS 210754Z 22005KT 10SM FEW110 19/15 A2973 RMK AO2 SLP068 T01940150 =
2018-06-21 02:54 METAR KBOS 210654Z 24004KT 10SM FEW240 21/15 A2974 RMK AO2 SLP070 T02060150 =
2018-06-21 01:54 METAR KBOS 210554Z 22007KT 10SM FEW240 21/15 A2975 RMK AO2 SLP074 T02060150
                 10261 20206 58006 =
2018-06-21 00:54 METAR KBOS 210454Z 22006KT 10SM FEW140 21/14 A2975 RMK AO2 SLP075 T02110144
                 402940172 =
2018-06-20 23:54 METAR KBOS 210354Z 22006KT 10SM FEW140 FEW250 22/14 A2977 RMK A02 SLP079
                 T02220139 =
2018-06-20 22:54 METAR KBOS 210254Z 23007KT 10SM FEW095 SCT240 24/13 A2977 RMK AO2 SLP079
                 T02390128 50004 =
2018-06-20 21:54 METAR KBOS 210154Z 24007KT 10SM FEW090 SCT140 BKN240 25/12 A2977 RMK AO2 SLP080
                 T02500122 =
2018-06-20 20:54 METAR KBOS 210054Z 27007KT 10SM FEW090 BKN140 BKN210 26/11 A2976 RMK AO2 SLP076
                 T02560111 =
2018-06-20 19:54 METAR KBOS 202354Z 27007KT 10SM FEW090 BKN140 BKN210 26/12 A2975 RMK AO2 SLP075
                 T02610122 10294 20261 55006 =
2018-06-20 18:54 METAR KBOS 202254Z 26009G15KT 10SM FEW090 BKN140 BKN210 27/11 A2975 RMK AO2
                 SLP075 T02670111 =
2018-06-20 17:54 METAR KBOS 202154Z 27013G20KT 10SM FEW030 BKN140 OVC250 27/11 A2977 RMK AO2
                 SLP080 T02670106 =
2018-06-20 16:54 METAR KBOS 202054Z 27012KT 10SM FEW030 BKN140 OVC250 27/09 A2977 RMK AO2 SLP081
                 T02720094 58009 =
2018-06-20 15:54 METAR KBOS 201954Z 26013G20KT 10SM FEW032 BKN140 OVC250 27/10 A2979 RMK AO2
                 SLP086 T02720100 =
2018-06-20 14:54 METAR KBOS 201854Z 24011KT 220V290 10SM FEW031 BKN140 OVC250 28/09 A2978 RMK AO2
                 SLP086 T02830094 VISNO E =
2018-06-20 13:54 METAR KBOS 201754Z 27011G22KT 10SM FEW050 FEW200 BKN250 28/09 A2980 RMK AO2
                 SLP090 T02830094 10289 20206 57024 $ =
2018-06-20 12:54 METAR KBOS 201654Z 13007KT 10SM FEW050 FEW200 SCT250 26/12 A2982 RMK AO2 SLP098
                 T02560117 =

Support USWX by starting your Amazon purchase here.